Seattle, WA

5:59 PM PDT on April 24, 2017 (GMT -0700)
Seattle | | Change Station

Elev 0 ft 47.61 °N, 122.34 °W | Updated 3 minutes ago

Clear
Clear
57.2 °F
Feels Like 57.2 °F
N
5.0
Wind Variable Wind from North
Gusts 14.3 mph

Today
High -- | Low -- °F
--% Chance of Precip.
Yesterday
High -- | Low -- °F
Precip. -- in
Pressure 29.78 in
Visibility 10.0 miles
Clouds Scattered Clouds 6000 ft
Scattered Clouds 20000 ft
Dew Point 44 °F
Humidity 61%
Rainfall 0.01 in
Snow Depth Not available.
6:03 AM 8:12 PM
Waning Crescent, 3% visible
METAR KBFI 250053Z 33007KT 10SM SCT060 SCT200 14/04 A2978 RMK AO2 SLP084 T01440039
Pressure 29.78 in
Visibility 10.0 miles
Clouds Scattered Clouds 6000 ft
Scattered Clouds 20000 ft
Dew Point 44 °F
Humidity 61%
Rainfall 0.01 in
Snow Depth Not available.
6:03 AM 8:12 PM
Waning Crescent, 3% visible
METAR KBFI 250053Z 33007KT 10SM SCT060 SCT200 14/04 A2978 RMK AO2 SLP084 T01440039

Get Severe Weather Alerts

Thanks for signing up!

Be on the lookout for a verification email in your inbox.

You'll start receiving the daily forecast at 8 AM.

×

10-Day Weather Forecast

Almanac

Astronomy

Apr. 24, 2017 Rise Set
Actual Time
Civil Twilight
Nautical Twilight
Astronomical Twilight
Moon
Length of Visible Light
Length of Day
Tomorrow will be .
, % of the Moon is Illuminated

Today's Extremes

State Highs State Lows

Community

WunderPhotos

WunderBlog® & News

Nearby

Air Quality

  Air Quality AQ Index Pollutant
Not available.

Snow Depth

Station Depth Elevation

Earthquake Activity

City Distance Mag. Time & Date
Minimum magnitude displayed is 2.5.

Coastal Water Temperatures

Place Temperature

Stations

Nearby Weather Stations

Station Location Temp. Windchill Dew Point Humidity Wind Precip. Elev Updated Type
                   

Watches & Warnings

There are currently no watches in effect.